sensor_id;sensor_type;location;lat;lon;timestamp;pressure;altitude;pressure_sealevel;temperature;humidity
43621;BME280;29213;50.770;7.298;2023-08-06T00:01:14;99785.56;;;14.48;66.94
43621;BME280;29213;50.770;7.298;2023-08-06T00:03:39;99760.44;;;14.35;66.89
43621;BME280;29213;50.770;7.298;2023-08-06T00:06:05;99727.13;;;14.11;66.74
43621;BME280;29213;50.770;7.298;2023-08-06T00:08:31;99686.94;;;13.97;66.64
43621;BME280;29213;50.770;7.298;2023-08-06T00:10:56;99770.50;;;14.53;66.73
43621;BME280;29213;50.770;7.298;2023-08-06T00:13:22;99643.34;;;13.76;66.67
43621;BME280;29213;50.770;7.298;2023-08-06T00:15:47;99608.78;;;13.55;67.07
43621;BME280;29213;50.770;7.298;2023-08-06T00:18:12;99726.88;;;14.26;67.38
43621;BME280;29213;50.770;7.298;2023-08-06T00:20:39;99742.94;;;14.33;67.18
43621;BME280;29213;50.770;7.298;2023-08-06T00:23:05;99713.94;;;14.09;67.21
43621;BME280;29213;50.770;7.298;2023-08-06T00:25:31;99767.63;;;14.41;67.50
43621;BME280;29213;50.770;7.298;2023-08-06T00:27:56;99675.41;;;13.90;67.32
43621;BME280;29213;50.770;7.298;2023-08-06T00:30:21;99785.53;;;14.54;67.93
43621;BME280;29213;50.770;7.298;2023-08-06T00:32:47;99741.50;;;14.23;67.12
43621;BME280;29213;50.770;7.298;2023-08-06T00:35:12;99729.59;;;14.12;67.27
43621;BME280;29213;50.770;7.298;2023-08-06T00:37:38;99681.59;;;13.84;67.08
43621;BME280;29213;50.770;7.298;2023-08-06T00:40:05;99719.72;;;14.06;67.11
43621;BME280;29213;50.770;7.298;2023-08-06T00:42:31;99655.69;;;13.71;67.36
43621;BME280;29213;50.770;7.298;2023-08-06T00:44:56;99684.28;;;13.84;67.47
43621;BME280;29213;50.770;7.298;2023-08-06T00:47:22;99776.28;;;14.50;67.75
43621;BME280;29213;50.770;7.298;2023-08-06T00:49:47;99712.88;;;14.10;67.90
43621;BME280;29213;50.770;7.298;2023-08-06T00:52:13;99771.31;;;14.47;68.00
43621;BME280;29213;50.770;7.298;2023-08-06T00:54:39;99700.50;;;14.02;67.82
43621;BME280;29213;50.770;7.298;2023-08-06T00:57:07;99733.47;;;14.23;67.85
43621;BME280;29213;50.770;7.298;2023-08-06T00:59:33;99680.78;;;13.90;68.02
43621;BME280;29213;50.770;7.298;2023-08-06T01:01:59;99767.44;;;14.43;67.97
43621;BME280;29213;50.770;7.298;2023-08-06T01:04:25;99678.72;;;13.85;67.86
43621;BME280;29213;50.770;7.298;2023-08-06T01:07:21;99528.59;;;12.94;67.88
43621;BME280;29213;50.770;7.298;2023-08-06T01:10:49;99781.63;;;14.43;67.87
43621;BME280;29213;50.770;7.298;2023-08-06T01:13:11;99668.88;;;13.79;67.98
43621;BME280;29213;50.770;7.298;2023-08-06T01:15:44;99681.81;;;13.89;68.02
43621;BME280;29213;50.770;7.298;2023-08-06T01:18:11;99726.28;;;14.17;68.13
43621;BME280;29213;50.770;7.298;2023-08-06T01:20:37;99690.44;;;13.91;68.08
43621;BME280;29213;50.770;7.298;2023-08-06T01:23:02;99662.06;;;13.76;68.56
43621;BME280;29213;50.770;7.298;2023-08-06T01:25:35;99759.81;;;14.40;68.49
43621;BME280;29213;50.770;7.298;2023-08-06T01:28:11;99718.44;;;14.15;68.72
43621;BME280;29213;50.770;7.298;2023-08-06T01:30:41;99688.59;;;13.98;68.60
43621;BME280;29213;50.770;7.298;2023-08-06T01:33:10;99750.97;;;14.39;68.58
43621;BME280;29213;50.770;7.298;2023-08-06T01:35:37;99731.00;;;14.22;68.61
43621;BME280;29213;50.770;7.298;2023-08-06T01:38:03;99600.56;;;13.43;68.71
43621;BME280;29213;50.770;7.298;2023-08-06T01:40:29;99683.66;;;13.88;68.58
43621;BME280;29213;50.770;7.298;2023-08-06T01:42:54;99644.78;;;13.72;68.94
43621;BME280;29213;50.770;7.298;2023-08-06T01:45:20;99729.94;;;14.36;68.88
43621;BME280;29213;50.770;7.298;2023-08-06T01:47:45;99674.59;;;13.96;68.37
43621;BME280;29213;50.770;7.298;2023-08-06T01:50:11;99653.41;;;13.95;68.67
43621;BME280;29213;50.770;7.298;2023-08-06T01:52:36;99650.28;;;13.91;68.26
43621;BME280;29213;50.770;7.298;2023-08-06T01:55:02;99680.56;;;14.12;68.49
43621;BME280;29213;50.770;7.298;2023-08-06T01:57:28;99706.44;;;14.38;68.61
43621;BME280;29213;50.770;7.298;2023-08-06T01:59:53;99642.47;;;13.96;68.48
43621;BME280;29213;50.770;7.298;2023-08-06T02:02:18;99720.06;;;14.37;68.58
43621;BME280;29213;50.770;7.298;2023-08-06T02:04:44;99635.06;;;13.85;68.60
43621;BME280;29213;50.770;7.298;2023-08-06T02:07:10;99688.19;;;14.15;68.32
43621;BME280;29213;50.770;7.298;2023-08-06T02:09:35;99640.03;;;13.81;68.43
43621;BME280;29213;50.770;7.298;2023-08-06T02:12:01;99617.63;;;13.62;67.88
43621;BME280;29213;50.770;7.298;2023-08-06T02:14:27;99708.16;;;14.06;67.94
43621;BME280;29213;50.770;7.298;2023-08-06T02:16:53;99706.09;;;13.94;68.65
43621;BME280;29213;50.770;7.298;2023-08-06T02:19:18;99604.28;;;13.21;68.92
43621;BME280;29213;50.770;7.298;2023-08-06T02:21:43;99685.31;;;13.69;68.76
43621;BME280;29213;50.770;7.298;2023-08-06T02:24:09;99607.59;;;13.17;69.13
43621;BME280;29213;50.770;7.298;2023-08-06T02:26:34;99582.47;;;13.04;69.35
43621;BME280;29213;50.770;7.298;2023-08-06T02:28:59;99679.16;;;13.69;68.84
43621;BME280;29213;50.770;7.298;2023-08-06T02:31:25;99684.50;;;13.82;68.62
43621;BME280;29213;50.770;7.298;2023-08-06T02:33:50;99679.53;;;13.86;68.51
43621;BME280;29213;50.770;7.298;2023-08-06T02:36:15;99605.31;;;13.41;68.38
43621;BME280;29213;50.770;7.298;2023-08-06T02:38:41;99653.84;;;13.71;68.15
43621;BME280;29213;50.770;7.298;2023-08-06T02:41:06;99607.16;;;13.47;68.34
43621;BME280;29213;50.770;7.298;2023-08-06T02:43:32;99611.47;;;13.55;68.08
43621;BME280;29213;50.770;7.298;2023-08-06T02:46:00;99641.69;;;13.69;68.36
43621;BME280;29213;50.770;7.298;2023-08-06T02:48:26;99694.34;;;13.88;68.59
43621;BME280;29213;50.770;7.298;2023-08-06T02:50:51;99621.97;;;13.43;68.92
43621;BME280;29213;50.770;7.298;2023-08-06T02:53:17;99665.38;;;13.58;69.01
43621;BME280;29213;50.770;7.298;2023-08-06T02:55:46;99639.25;;;13.40;69.13
43621;BME280;29213;50.770;7.298;2023-08-06T02:58:15;99580.19;;;12.94;69.30
43621;BME280;29213;50.770;7.298;2023-08-06T03:00:41;99654.47;;;13.40;69.40
43621;BME280;29213;50.770;7.298;2023-08-06T03:03:08;99633.88;;;13.13;69.81
43621;BME280;29213;50.770;7.298;2023-08-06T03:05:33;99592.72;;;12.87;70.39
43621;BME280;29213;50.770;7.298;2023-08-06T03:07:59;99623.19;;;13.06;70.47
43621;BME280;29213;50.770;7.298;2023-08-06T03:10:24;99611.22;;;12.95;70.29
43621;BME280;29213;50.770;7.298;2023-08-06T03:12:49;99627.31;;;13.09;70.53
43621;BME280;29213;50.770;7.298;2023-08-06T03:15:15;99618.47;;;13.08;70.52
43621;BME280;29213;50.770;7.298;2023-08-06T03:17:40;99561.25;;;12.82;70.70
43621;BME280;29213;50.770;7.298;2023-08-06T03:20:06;99609.41;;;13.16;70.33
43621;BME280;29213;50.770;7.298;2023-08-06T03:22:31;99609.22;;;13.25;70.01
43621;BME280;29213;50.770;7.298;2023-08-06T03:24:57;99626.06;;;13.45;69.83
43621;BME280;29213;50.770;7.298;2023-08-06T03:27:22;99607.97;;;13.41;69.54
43621;BME280;29213;50.770;7.298;2023-08-06T03:29:50;99513.78;;;12.85;69.46
43621;BME280;29213;50.770;7.298;2023-08-06T03:32:16;99575.88;;;13.27;69.50
43621;BME280;29213;50.770;7.298;2023-08-06T03:34:41;99637.78;;;13.71;69.46
43621;BME280;29213;50.770;7.298;2023-08-06T03:37:07;99644.16;;;13.77;69.49
43621;BME280;29213;50.770;7.298;2023-08-06T03:39:32;99512.34;;;12.95;69.28
43621;BME280;29213;50.770;7.298;2023-08-06T03:41:57;99640.03;;;13.74;69.36
43621;BME280;29213;50.770;7.298;2023-08-06T03:44:23;99587.22;;;13.36;69.52
43621;BME280;29213;50.770;7.298;2023-08-06T03:46:48;99552.88;;;13.19;69.41
43621;BME280;29213;50.770;7.298;2023-08-06T03:49:13;99523.47;;;13.06;69.39
43621;BME280;29213;50.770;7.298;2023-08-06T03:51:39;99563.16;;;13.36;69.24
43621;BME280;29213;50.770;7.298;2023-08-06T03:54:04;99572.78;;;13.44;69.35
43621;BME280;29213;50.770;7.298;2023-08-06T03:56:30;99599.28;;;13.66;69.25
43621;BME280;29213;50.770;7.298;2023-08-06T03:58:55;99556.13;;;13.42;69.34
43621;BME280;29213;50.770;7.298;2023-08-06T04:01:20;99624.16;;;13.86;69.32
43621;BME280;29213;50.770;7.298;2023-08-06T04:03:46;99614.91;;;13.82;69.28
43621;BME280;29213;50.770;7.298;2023-08-06T04:06:11;99624.56;;;13.97;69.25
43621;BME280;29213;50.770;7.298;2023-08-06T04:08:36;99500.66;;;13.10;69.32
43621;BME280;29213;50.770;7.298;2023-08-06T04:11:02;99620.66;;;13.93;69.43
43621;BME280;29213;50.770;7.298;2023-08-06T04:13:27;99616.16;;;13.86;69.73
43621;BME280;29213;50.770;7.298;2023-08-06T04:15:53;99567.22;;;13.45;69.83
43621;BME280;29213;50.770;7.298;2023-08-06T04:18:19;99537.25;;;13.23;69.71
43621;BME280;29213;50.770;7.298;2023-08-06T04:20:46;99560.25;;;13.38;70.15
43621;BME280;29213;50.770;7.298;2023-08-06T04:23:11;99621.09;;;13.76;70.35
43621;BME280;29213;50.770;7.298;2023-08-06T04:25:37;99625.44;;;13.70;70.69
43621;BME280;29213;50.770;7.298;2023-08-06T04:28:03;99614.94;;;13.62;71.14
43621;BME280;29213;50.770;7.298;2023-08-06T04:30:29;99496.13;;;12.83;71.13
43621;BME280;29213;50.770;7.298;2023-08-06T04:32:56;99557.81;;;13.09;71.50
43621;BME280;29213;50.770;7.298;2023-08-06T04:35:22;99614.34;;;13.53;71.55
43621;BME280;29213;50.770;7.298;2023-08-06T04:37:47;99613.75;;;13.51;71.69
43621;BME280;29213;50.770;7.298;2023-08-06T04:40:12;99557.38;;;13.12;71.83
43621;BME280;29213;50.770;7.298;2023-08-06T04:42:38;99612.91;;;13.50;71.95
43621;BME280;29213;50.770;7.298;2023-08-06T04:45:04;99530.22;;;13.02;71.84
43621;BME280;29213;50.770;7.298;2023-08-06T04:47:30;99570.97;;;13.31;71.79
43621;BME280;29213;50.770;7.298;2023-08-06T04:49:55;99572.81;;;13.37;71.64
43621;BME280;29213;50.770;7.298;2023-08-06T04:52:20;99549.59;;;13.31;71.50
43621;BME280;29213;50.770;7.298;2023-08-06T04:54:46;99539.28;;;13.28;71.51
43621;BME280;29213;50.770;7.298;2023-08-06T04:57:11;99614.91;;;13.82;71.39
43621;BME280;29213;50.770;7.298;2023-08-06T04:59:36;99583.03;;;13.67;70.97
43621;BME280;29213;50.770;7.298;2023-08-06T05:02:02;99558.81;;;13.48;70.77
43621;BME280;29213;50.770;7.298;2023-08-06T05:04:28;99586.94;;;13.71;71.10
43621;BME280;29213;50.770;7.298;2023-08-06T05:06:53;99538.44;;;13.41;70.75
43621;BME280;29213;50.770;7.298;2023-08-06T05:09:19;99625.59;;;13.96;70.91
43621;BME280;29213;50.770;7.298;2023-08-06T05:11:46;99563.72;;;13.58;70.91
43621;BME280;29213;50.770;7.298;2023-08-06T05:14:12;99622.69;;;13.97;71.13
43621;BME280;29213;50.770;7.298;2023-08-06T05:16:37;99580.56;;;13.72;71.11
43621;BME280;29213;50.770;7.298;2023-08-06T05:19:02;99563.72;;;13.58;71.26
43621;BME280;29213;50.770;7.298;2023-08-06T05:21:28;99502.50;;;13.16;71.31
43621;BME280;29213;50.770;7.298;2023-08-06T05:23:54;99535.97;;;13.39;71.40
43621;BME280;29213;50.770;7.298;2023-08-06T05:26:19;99544.19;;;13.44;71.28
43621;BME280;29213;50.770;7.298;2023-08-06T05:28:45;99627.25;;;13.97;71.32
43621;BME280;29213;50.770;7.298;2023-08-06T05:31:11;99497.97;;;13.17;71.01
43621;BME280;29213;50.770;7.298;2023-08-06T05:33:36;99608.09;;;13.93;71.01
43621;BME280;29213;50.770;7.298;2023-08-06T05:36:02;99586.69;;;13.86;70.93
43621;BME280;29213;50.770;7.298;2023-08-06T05:38:29;99590.63;;;13.84;70.83
43621;BME280;29213;50.770;7.298;2023-08-06T05:40:55;99566.53;;;13.77;70.99
43621;BME280;29213;50.770;7.298;2023-08-06T05:43:20;99574.38;;;13.79;71.09
43621;BME280;29213;50.770;7.298;2023-08-06T05:45:46;99608.91;;;14.00;71.15
43621;BME280;29213;50.770;7.298;2023-08-06T05:48:12;99638.13;;;14.15;71.44
43621;BME280;29213;50.770;7.298;2023-08-06T05:50:37;99623.53;;;14.11;71.40
43621;BME280;29213;50.770;7.298;2023-08-06T05:53:02;99635.44;;;14.22;71.23
43621;BME280;29213;50.770;7.298;2023-08-06T05:55:28;99639.75;;;14.23;71.36
43621;BME280;29213;50.770;7.298;2023-08-06T05:57:53;99580.75;;;13.84;71.13
43621;BME280;29213;50.770;7.298;2023-08-06T06:00:20;99530.19;;;13.56;71.15
43621;BME280;29213;50.770;7.298;2023-08-06T06:02:46;99636.22;;;14.29;71.22
43621;BME280;29213;50.770;7.298;2023-08-06T06:05:11;99520.31;;;13.56;71.06
43621;BME280;29213;50.770;7.298;2023-08-06T06:07:37;99643.41;;;14.36;71.04
43621;BME280;29213;50.770;7.298;2023-08-06T06:10:02;99611.53;;;14.21;71.04
43621;BME280;29213;50.770;7.298;2023-08-06T06:12:28;99579.06;;;13.97;70.81
43621;BME280;29213;50.770;7.298;2023-08-06T06:14:53;99636.78;;;14.38;70.94
43621;BME280;29213;50.770;7.298;2023-08-06T06:17:18;99556.44;;;13.86;71.19
43621;BME280;29213;50.770;7.298;2023-08-06T06:19:44;99479.22;;;13.30;71.35
43621;BME280;29213;50.770;7.298;2023-08-06T06:22:09;99629.88;;;14.24;71.26
43621;BME280;29213;50.770;7.298;2023-08-06T06:24:34;99604.78;;;14.11;71.50
43621;BME280;29213;50.770;7.298;2023-08-06T06:27:00;99619.78;;;14.19;71.18
43621;BME280;29213;50.770;7.298;2023-08-06T06:29:25;99567.97;;;13.93;71.07
43621;BME280;29213;50.770;7.298;2023-08-06T06:31:51;99528.09;;;13.71;71.13
43621;BME280;29213;50.770;7.298;2023-08-06T06:34:16;99570.19;;;13.96;71.38
43621;BME280;29213;50.770;7.298;2023-08-06T06:36:41;99578.00;;;14.05;71.25
43621;BME280;29213;50.770;7.298;2023-08-06T06:39:07;99658.38;;;14.57;71.24
43621;BME280;29213;50.770;7.298;2023-08-06T06:41:33;99575.94;;;14.00;70.90
43621;BME280;29213;50.770;7.298;2023-08-06T06:43:58;99670.94;;;14.56;71.21
43621;BME280;29213;50.770;7.298;2023-08-06T06:46:24;99562.81;;;13.85;70.96
43621;BME280;29213;50.770;7.298;2023-08-06T06:48:49;99608.88;;;14.14;70.95
43621;BME280;29213;50.770;7.298;2023-08-06T06:51:15;99638.03;;;14.36;71.10
43621;BME280;29213;50.770;7.298;2023-08-06T06:53:40;99676.28;;;14.63;71.30
43621;BME280;29213;50.770;7.298;2023-08-06T06:56:06;99630.00;;;14.36;71.32
43621;BME280;29213;50.770;7.298;2023-08-06T06:58:32;99632.06;;;14.40;71.40
43621;BME280;29213;50.770;7.298;2023-08-06T07:00:57;99488.22;;;13.49;71.52
43621;BME280;29213;50.770;7.298;2023-08-06T07:03:23;99672.53;;;14.71;71.48
43621;BME280;29213;50.770;7.298;2023-08-06T07:05:49;99588.69;;;14.18;71.20
43621;BME280;29213;50.770;7.298;2023-08-06T07:08:15;99551.06;;;13.99;71.15
43621;BME280;29213;50.770;7.298;2023-08-06T07:10:41;99534.03;;;13.80;71.32
43621;BME280;29213;50.770;7.298;2023-08-06T07:13:07;99653.19;;;14.62;71.27
43621;BME280;29213;50.770;7.298;2023-08-06T07:15:32;99618.69;;;14.40;71.34
43621;BME280;29213;50.770;7.298;2023-08-06T07:17:57;99662.03;;;14.69;71.49
43621;BME280;29213;50.770;7.298;2023-08-06T07:20:23;99570.97;;;14.17;71.35
43621;BME280;29213;50.770;7.298;2023-08-06T07:22:48;99682.75;;;14.88;71.19
43621;BME280;29213;50.770;7.298;2023-08-06T07:25:15;99682.97;;;14.86;70.93
43621;BME280;29213;50.770;7.298;2023-08-06T07:27:41;99639.19;;;14.60;71.03
43621;BME280;29213;50.770;7.298;2023-08-06T07:30:07;99641.47;;;14.56;71.03
43621;BME280;29213;50.770;7.298;2023-08-06T07:32:32;99687.66;;;14.91;71.25
43621;BME280;29213;50.770;7.298;2023-08-06T07:34:58;99649.28;;;14.65;71.09
43621;BME280;29213;50.770;7.298;2023-08-06T07:37:26;99526.78;;;13.94;70.92
43621;BME280;29213;50.770;7.298;2023-08-06T07:39:54;99613.91;;;14.49;71.18
43621;BME280;29213;50.770;7.298;2023-08-06T07:42:20;99677.38;;;14.88;71.07
43621;BME280;29213;50.770;7.298;2023-08-06T07:44:56;99692.75;;;15.06;71.10
43621;BME280;29213;50.770;7.298;2023-08-06T07:47:22;99690.25;;;15.11;70.83
43621;BME280;29213;50.770;7.298;2023-08-06T07:49:47;99663.13;;;14.94;71.13
43621;BME280;29213;50.770;7.298;2023-08-06T07:52:13;99604.34;;;14.60;71.08
43621;BME280;29213;50.770;7.298;2023-08-06T07:54:38;99694.75;;;15.17;70.93
43621;BME280;29213;50.770;7.298;2023-08-06T07:57:04;99649.97;;;14.86;70.65
43621;BME280;29213;50.770;7.298;2023-08-06T07:59:30;99631.69;;;14.76;70.38
43621;BME280;29213;50.770;7.298;2023-08-06T08:01:55;99642.78;;;14.79;70.06
43621;BME280;29213;50.770;7.298;2023-08-06T08:04:21;99645.41;;;14.93;69.58
43621;BME280;29213;50.770;7.298;2023-08-06T08:06:47;99657.75;;;14.94;69.27
43621;BME280;29213;50.770;7.298;2023-08-06T08:09:13;99679.16;;;15.07;68.86
43621;BME280;29213;50.770;7.298;2023-08-06T08:11:39;99635.31;;;14.88;69.10
43621;BME280;29213;50.770;7.298;2023-08-06T08:14:04;99661.22;;;15.01;68.91
43621;BME280;29213;50.770;7.298;2023-08-06T08:16:30;99637.94;;;14.95;69.13
43621;BME280;29213;50.770;7.298;2023-08-06T08:18:55;99637.34;;;14.93;69.28
43621;BME280;29213;50.770;7.298;2023-08-06T08:21:20;99627.22;;;14.95;68.91
43621;BME280;29213;50.770;7.298;2023-08-06T08:23:46;99693.38;;;15.40;69.50
43621;BME280;29213;50.770;7.298;2023-08-06T08:26:11;99681.84;;;15.33;69.48
43621;BME280;29213;50.770;7.298;2023-08-06T08:28:36;99636.25;;;15.07;69.50
43621;BME280;29213;50.770;7.298;2023-08-06T08:31:02;99614.03;;;14.93;69.29
43621;BME280;29213;50.770;7.298;2023-08-06T08:33:27;99638.13;;;15.07;68.30
43621;BME280;29213;50.770;7.298;2023-08-06T08:35:53;99661.78;;;15.17;68.46
43621;BME280;29213;50.770;7.298;2023-08-06T08:38:18;99702.25;;;15.41;68.08
43621;BME280;29213;50.770;7.298;2023-08-06T08:40:46;99679.63;;;15.30;68.24
43621;BME280;29213;50.770;7.298;2023-08-06T08:43:15;99666.28;;;15.16;68.34
43621;BME280;29213;50.770;7.298;2023-08-06T08:45:42;99671.44;;;15.18;68.46
43621;BME280;29213;50.770;7.298;2023-08-06T08:48:09;99643.69;;;15.05;68.61
43621;BME280;29213;50.770;7.298;2023-08-06T08:50:36;99706.72;;;15.47;68.48
43621;BME280;29213;50.770;7.298;2023-08-06T08:53:02;99703.00;;;15.48;68.42
43621;BME280;29213;50.770;7.298;2023-08-06T08:55:28;99679.47;;;15.25;68.68
43621;BME280;29213;50.770;7.298;2023-08-06T08:57:53;99714.38;;;15.43;68.60
43621;BME280;29213;50.770;7.298;2023-08-06T09:00:19;99631.03;;;14.80;68.32
43621;BME280;29213;50.770;7.298;2023-08-06T09:02:45;99717.97;;;15.30;68.43
43621;BME280;29213;50.770;7.298;2023-08-06T09:05:12;99722.53;;;15.30;68.63
43621;BME280;29213;50.770;7.298;2023-08-06T09:07:48;99661.69;;;14.91;68.61
43621;BME280;29213;50.770;7.298;2023-08-06T09:10:16;99706.53;;;15.16;68.73
43621;BME280;29213;50.770;7.298;2023-08-06T09:12:43;99700.13;;;15.17;68.96
43621;BME280;29213;50.770;7.298;2023-08-06T09:15:10;99717.56;;;15.33;69.17
43621;BME280;29213;50.770;7.298;2023-08-06T09:17:36;99689.84;;;15.14;69.04
43621;BME280;29213;50.770;7.298;2023-08-06T09:20:14;99733.00;;;15.38;69.26
43621;BME280;29213;50.770;7.298;2023-08-06T09:22:40;99728.50;;;15.32;68.94
43621;BME280;29213;50.770;7.298;2023-08-06T09:25:07;99731.78;;;15.34;69.10
43621;BME280;29213;50.770;7.298;2023-08-06T09:27:36;99736.06;;;15.42;69.16
43621;BME280;29213;50.770;7.298;2023-08-06T09:30:02;99744.75;;;15.44;69.39
43621;BME280;29213;50.770;7.298;2023-08-06T09:32:44;99718.44;;;15.27;69.33
43621;BME280;29213;50.770;7.298;2023-08-06T09:35:15;99736.69;;;15.44;69.45
43621;BME280;29213;50.770;7.298;2023-08-06T09:37:41;99730.94;;;15.40;69.83
43621;BME280;29213;50.770;7.298;2023-08-06T09:40:30;99749.44;;;15.48;69.65
43621;BME280;29213;50.770;7.298;2023-08-06T09:42:56;99700.47;;;15.28;69.48
43621;BME280;29213;50.770;7.298;2023-08-06T09:45:23;99721.84;;;15.41;69.60
43621;BME280;29213;50.770;7.298;2023-08-06T09:47:49;99695.72;;;15.30;69.30
43621;BME280;29213;50.770;7.298;2023-08-06T09:50:19;99719.72;;;15.50;69.29
43621;BME280;29213;50.770;7.298;2023-08-06T09:52:45;99716.59;;;15.53;68.98
43621;BME280;29213;50.770;7.298;2023-08-06T09:55:11;99746.56;;;15.75;69.59
43621;BME280;29213;50.770;7.298;2023-08-06T09:57:37;99710.03;;;15.49;69.23
43621;BME280;29213;50.770;7.298;2023-08-06T10:00:03;99737.34;;;15.65;69.34
43621;BME280;29213;50.770;7.298;2023-08-06T10:02:31;99744.66;;;15.50;69.64
43621;BME280;29213;50.770;7.298;2023-08-06T10:04:58;99753.94;;;15.55;68.73
43621;BME280;29213;50.770;7.298;2023-08-06T10:07:24;99747.66;;;15.35;69.26
43621;BME280;29213;50.770;7.298;2023-08-06T10:09:50;99765.00;;;15.33;68.79
43621;BME280;29213;50.770;7.298;2023-08-06T10:12:16;99736.06;;;15.03;70.75
43621;BME280;29213;50.770;7.298;2023-08-06T10:14:43;99715.53;;;14.83;69.90
43621;BME280;29213;50.770;7.298;2023-08-06T10:17:11;99736.97;;;14.83;70.09
43621;BME280;29213;50.770;7.298;2023-08-06T10:19:36;99742.31;;;14.90;69.67
43621;BME280;29213;50.770;7.298;2023-08-06T10:22:12;99734.94;;;14.78;69.29
43621;BME280;29213;50.770;7.298;2023-08-06T10:24:54;99781.31;;;14.86;69.12
43621;BME280;29213;50.770;7.298;2023-08-06T10:27:32;99694.56;;;14.14;69.43
43621;BME280;29213;50.770;7.298;2023-08-06T10:30:32;99783.66;;;14.68;69.58
43621;BME280;29213;50.770;7.298;2023-08-06T10:32:59;99751.97;;;14.38;69.22
43621;BME280;29213;50.770;7.298;2023-08-06T10:35:29;99805.53;;;14.52;69.39
43621;BME280;29213;50.770;7.298;2023-08-06T10:38:12;99819.56;;;14.40;69.28
43621;BME280;29213;50.770;7.298;2023-08-06T10:40:47;99809.69;;;14.14;68.83
43621;BME280;29213;50.770;7.298;2023-08-06T10:43:38;99832.75;;;13.95;70.05
43621;BME280;29213;50.770;7.298;2023-08-06T10:46:10;99818.91;;;13.64;70.36
43621;BME280;29213;50.770;7.298;2023-08-06T10:48:38;99810.66;;;13.52;70.16
43621;BME280;29213;50.770;7.298;2023-08-06T10:51:11;99827.31;;;13.54;69.88
43621;BME280;29213;50.770;7.298;2023-08-06T10:53:37;99846.88;;;13.55;70.17
43621;BME280;29213;50.770;7.298;2023-08-06T10:56:18;99835.31;;;13.41;70.11
43621;BME280;29213;50.770;7.298;2023-08-06T10:58:45;99879.59;;;13.57;69.92
43621;BME280;29213;50.770;7.298;2023-08-06T11:01:11;99876.41;;;13.33;70.33
43621;BME280;29213;50.770;7.298;2023-08-06T11:03:37;99883.63;;;13.39;70.44
43621;BME280;29213;50.770;7.298;2023-08-06T11:06:04;99839.28;;;13.09;70.07
43621;BME280;29213;50.770;7.298;2023-08-06T11:08:35;99900.50;;;13.33;70.27
43621;BME280;29213;50.770;7.298;2023-08-06T11:11:11;99875.06;;;13.08;70.14
43621;BME280;29213;50.770;7.298;2023-08-06T11:13:41;99862.66;;;13.01;70.51
43621;BME280;29213;50.770;7.298;2023-08-06T11:16:07;99877.31;;;13.05;70.51
43621;BME280;29213;50.770;7.298;2023-08-06T11:18:33;99866.75;;;12.96;70.63
43621;BME280;29213;50.770;7.298;2023-08-06T11:21:02;99893.84;;;13.15;70.40
43621;BME280;29213;50.770;7.298;2023-08-06T11:23:28;99881.56;;;12.92;70.44
43621;BME280;29213;50.770;7.298;2023-08-06T11:25:57;99912.13;;;13.12;70.48
43621;BME280;29213;50.770;7.298;2023-08-06T11:28:22;99927.31;;;13.11;70.55
43621;BME280;29213;50.770;7.298;2023-08-06T11:30:49;99926.69;;;13.09;70.66
43621;BME280;29213;50.770;7.298;2023-08-06T11:33:14;99923.66;;;12.90;70.81
43621;BME280;29213;50.770;7.298;2023-08-06T11:35:40;99893.94;;;12.72;70.76
43621;BME280;29213;50.770;7.298;2023-08-06T11:38:06;99941.22;;;13.00;71.07
43621;BME280;29213;50.770;7.298;2023-08-06T11:40:32;99938.09;;;12.96;70.30
43621;BME280;29213;50.770;7.298;2023-08-06T11:42:58;99883.13;;;12.51;70.40
43621;BME280;29213;50.770;7.298;2023-08-06T11:45:24;99919.25;;;12.76;70.88
43621;BME280;29213;50.770;7.298;2023-08-06T11:47:53;99938.25;;;12.88;70.45
43621;BME280;29213;50.770;7.298;2023-08-06T11:50:22;99962.59;;;13.00;70.40
43621;BME280;29213;50.770;7.298;2023-08-06T11:52:58;99921.88;;;12.69;70.20
43621;BME280;29213;50.770;7.298;2023-08-06T11:55:24;99975.72;;;12.94;70.30
43621;BME280;29213;50.770;7.298;2023-08-06T11:57:50;99933.53;;;12.61;70.50
43621;BME280;29213;50.770;7.298;2023-08-06T12:00:16;99976.13;;;12.91;70.46
43621;BME280;29213;50.770;7.298;2023-08-06T12:02:45;99941.84;;;12.73;71.07
43621;BME280;29213;50.770;7.298;2023-08-06T12:05:11;99979.47;;;13.00;71.08
43621;BME280;29213;50.770;7.298;2023-08-06T12:07:38;99919.38;;;12.61;70.91
43621;BME280;29213;50.770;7.298;2023-08-06T12:10:07;99946.84;;;12.83;70.84
43621;BME280;29213;50.770;7.298;2023-08-06T12:12:33;99964.41;;;12.99;71.15
43621;BME280;29213;50.770;7.298;2023-08-06T12:15:03;99922.13;;;12.74;70.86
43621;BME280;29213;50.770;7.298;2023-08-06T12:17:28;99995.84;;;13.19;71.14
43621;BME280;29213;50.770;7.298;2023-08-06T12:19:54;99953.47;;;12.87;71.14
43621;BME280;29213;50.770;7.298;2023-08-06T12:22:19;99957.59;;;12.90;71.19
43621;BME280;29213;50.770;7.298;2023-08-06T12:24:46;99969.09;;;12.90;71.37
43621;BME280;29213;50.770;7.298;2023-08-06T12:27:12;99981.28;;;13.00;71.26
43621;BME280;29213;50.770;7.298;2023-08-06T12:29:42;99966.88;;;12.94;72.68
43621;BME280;29213;50.770;7.298;2023-08-06T12:32:09;99974.47;;;13.19;73.99
43621;BME280;29213;50.770;7.298;2023-08-06T12:34:34;100008.00;;;13.57;73.96
43621;BME280;29213;50.770;7.298;2023-08-06T12:37:00;99998.75;;;13.59;72.27
43621;BME280;29213;50.770;7.298;2023-08-06T12:39:25;99972.13;;;13.44;71.32
43621;BME280;29213;50.770;7.298;2023-08-06T12:41:53;99979.13;;;13.45;71.19
43621;BME280;29213;50.770;7.298;2023-08-06T12:44:19;99984.28;;;13.47;71.27
43621;BME280;29213;50.770;7.298;2023-08-06T12:46:44;99967.59;;;13.38;71.18
43621;BME280;29213;50.770;7.298;2023-08-06T12:49:10;99973.59;;;13.47;70.88
43621;BME280;29213;50.770;7.298;2023-08-06T12:51:35;100003.53;;;13.71;70.80
43621;BME280;29213;50.770;7.298;2023-08-06T12:54:00;100016.13;;;13.77;71.25
43621;BME280;29213;50.770;7.298;2023-08-06T12:56:26;99977.13;;;13.54;71.34
43621;BME280;29213;50.770;7.298;2023-08-06T12:58:51;100001.47;;;13.66;71.18